createdAt,value
2018-12-02T00:00:47.305Z,93.07
2018-12-02T00:03:19.527Z,93.27
2018-12-02T00:05:47.683Z,93.34
2018-12-02T00:08:15.878Z,93.13
2018-12-02T00:10:44.024Z,93.78
2018-12-02T00:13:12.212Z,93.68
2018-12-02T00:15:41.170Z,93.20
2018-12-02T00:18:10.560Z,93.20
2018-12-02T00:20:38.734Z,93.66
2018-12-02T00:23:07.619Z,93.61
2018-12-02T00:25:36.102Z,93.75
2018-12-02T00:28:04.288Z,93.67
2018-12-02T00:30:32.677Z,94.05
2018-12-02T00:33:00.830Z,93.62
2018-12-02T00:35:28.988Z,93.81
2018-12-02T00:37:58.327Z,94.38
2018-12-02T00:40:26.659Z,94.24
2018-12-02T00:42:58.737Z,93.86
2018-12-02T00:45:28.842Z,94.12
2018-12-02T00:47:57.057Z,94.01
2018-12-02T00:50:25.310Z,94.11
2018-12-02T00:52:55.563Z,94.40
2018-12-02T00:55:24.903Z,94.02
2018-12-02T00:57:53.041Z,94.22
2018-12-02T01:00:21.188Z,93.83
2018-12-02T01:02:50.241Z,93.94
2018-12-02T01:05:19.564Z,94.09
2018-12-02T01:07:47.956Z,93.59
2018-12-02T01:10:20.126Z,93.84
2018-12-02T01:12:49.354Z,93.37
2018-12-02T01:15:19.613Z,93.46
2018-12-02T01:17:47.871Z,93.26
2018-12-02T01:20:18.030Z,92.94
2018-12-02T01:22:46.219Z,93.14
2018-12-02T01:25:14.724Z,92.95
2018-12-02T01:27:43.465Z,93.36
2018-12-02T01:30:16.459Z,93.45
2018-12-02T01:32:44.769Z,93.63
2018-12-02T01:35:13.600Z,93.16
2018-12-02T01:37:41.820Z,93.56
2018-12-02T01:40:14.873Z,93.84
2018-12-02T01:42:43.093Z,93.87
2018-12-02T01:45:20.021Z,93.42
2018-12-02T01:47:48.247Z,93.58
2018-12-02T01:50:17.293Z,93.51
2018-12-02T01:52:46.536Z,93.77
2018-12-02T01:55:14.736Z,93.81
2018-12-02T01:57:42.924Z,93.56
2018-12-02T02:00:15.126Z,94.11
2018-12-02T02:02:43.334Z,94.04
2018-12-02T02:05:11.529Z,94.18
2018-12-02T02:07:39.675Z,94.45
2018-12-02T02:10:24.838Z,94.36
2018-12-02T02:12:53.103Z,93.98
2018-12-02T02:15:21.301Z,94.37
2018-12-02T02:17:49.519Z,94.41
2018-12-02T02:20:18.642Z,94.21
2018-12-02T02:22:47.512Z,94.46
2018-12-02T02:25:16.606Z,94.61
2018-12-02T02:27:47.930Z,94.67
2018-12-02T02:30:19.111Z,95.00
2018-12-02T02:32:47.385Z,95.24
2018-12-02T02:35:16.493Z,95.14
2018-12-02T02:37:44.722Z,95.29
2018-12-02T02:40:14.789Z,94.63
2018-12-02T02:42:42.972Z,94.68
2018-12-02T02:45:11.977Z,94.85
2018-12-02T02:47:40.293Z,94.78
2018-12-02T02:50:19.166Z,94.45
2018-12-02T02:52:48.469Z,94.74
2018-12-02T02:55:16.648Z,94.72
2018-12-02T02:57:44.880Z,94.79
2018-12-02T03:00:15.161Z,94.79
2018-12-02T03:02:43.362Z,94.54
2018-12-02T03:05:12.344Z,94.94
2018-12-02T03:07:40.514Z,94.98
2018-12-02T03:10:10.901Z,94.53
2018-12-02T03:12:39.081Z,94.44
2018-12-02T03:15:09.193Z,94.87
2018-12-02T03:17:37.428Z,94.50
2018-12-02T03:20:14.556Z,94.18
2018-12-02T03:22:43.677Z,94.27
2018-12-02T03:25:15.974Z,94.42
2018-12-02T03:27:44.116Z,94.26
2018-12-02T03:30:16.071Z,94.00
2018-12-02T03:32:44.243Z,94.33
2018-12-02T03:35:14.456Z,93.95
2018-12-02T03:37:42.697Z,93.62
2018-12-02T03:40:18.916Z,94.12
2018-12-02T03:42:47.135Z,93.64
2018-12-02T03:45:16.374Z,93.46
2018-12-02T03:47:44.577Z,93.35
2018-12-02T03:50:17.620Z,93.25
2018-12-02T03:52:43.057Z,93.62
2018-12-02T03:55:11.211Z,93.74
2018-12-02T03:57:39.385Z,93.26
2018-12-02T04:00:13.804Z,92.88
2018-12-02T04:02:41.978Z,92.75
2018-12-02T04:05:10.823Z,92.43
2018-12-02T04:07:39.010Z,92.18
2018-12-02T04:10:08.982Z,92.43
2018-12-02T04:12:37.190Z,92.10
2018-12-02T04:15:08.045Z,91.96
2018-12-02T04:17:36.225Z,91.78
2018-12-02T04:20:05.124Z,91.78
2018-12-02T04:22:33.256Z,91.06
2018-12-02T04:25:01.438Z,91.43
2018-12-02T04:27:29.621Z,91.42
2018-12-02T04:29:57.761Z,91.03
2018-12-02T04:32:25.929Z,91.45
2018-12-02T04:34:54.129Z,90.54
2018-12-02T04:37:22.364Z,90.49
2018-12-02T04:39:50.582Z,90.78
2018-12-02T04:42:18.762Z,90.30
2018-12-02T04:44:46.956Z,89.68
2018-12-02T04:47:15.140Z,90.39
2018-12-02T04:49:43.301Z,90.25
2018-12-02T04:52:11.548Z,89.53
2018-12-02T04:54:39.755Z,90.24
2018-12-02T04:57:07.926Z,89.58
2018-12-02T04:59:36.076Z,89.94
2018-12-02T05:02:04.233Z,90.44
2018-12-02T05:04:32.396Z,89.62
2018-12-02T05:07:00.730Z,90.15
2018-12-02T05:09:28.998Z,90.44
2018-12-02T05:11:57.169Z,91.05
2018-12-02T05:14:25.356Z,90.16
2018-12-02T05:16:53.691Z,90.32
2018-12-02T05:19:21.861Z,90.54
2018-12-02T05:21:50.042Z,90.38
2018-12-02T05:24:18.314Z,91.21
2018-12-02T05:26:46.514Z,91.67
2018-12-02T05:29:14.657Z,92.00
2018-12-02T05:31:42.789Z,92.69
2018-12-02T05:34:10.982Z,92.91
2018-12-02T05:36:39.147Z,92.82
2018-12-02T05:39:09.425Z,92.96
2018-12-02T05:41:43.245Z,93.05
2018-12-02T05:44:11.435Z,93.61
2018-12-02T05:46:39.598Z,93.78
2018-12-02T05:49:07.829Z,93.50
2018-12-02T05:51:35.998Z,93.82
2018-12-02T05:54:04.204Z,94.03
2018-12-02T05:56:32.346Z,93.58
2018-12-02T05:59:00.572Z,93.51
2018-12-02T06:01:28.738Z,93.28
2018-12-02T06:04:00.030Z,92.30
2018-12-02T06:06:28.206Z,92.14
2018-12-02T06:08:56.364Z,91.62
2018-12-02T06:11:24.586Z,92.23
2018-12-02T06:13:52.830Z,90.57
2018-12-02T06:16:20.992Z,91.03
2018-12-02T06:18:49.166Z,90.73
2018-12-02T06:21:17.300Z,90.39
2018-12-02T06:23:45.460Z,90.32
2018-12-02T06:26:13.735Z,90.91
2018-12-02T06:28:41.895Z,90.28
2018-12-02T06:31:10.152Z,90.48
2018-12-02T06:33:38.301Z,90.82
2018-12-02T06:36:06.493Z,90.00
2018-12-02T06:38:34.706Z,89.81
2018-12-02T06:41:02.856Z,90.92
2018-12-02T06:43:31.051Z,90.52
2018-12-02T06:45:59.214Z,90.39
2018-12-02T06:48:27.375Z,90.09
2018-12-02T06:50:55.507Z,89.96
2018-12-02T06:53:23.770Z,90.47
2018-12-02T06:55:58.435Z,89.35
2018-12-02T06:58:39.615Z,89.93
2018-12-02T07:01:21.157Z,90.97
2018-12-02T07:04:24.453Z,91.22
2018-12-02T07:06:52.596Z,92.10
2018-12-02T07:09:20.709Z,92.96
2018-12-02T07:11:48.945Z,93.41
2018-12-02T07:14:17.123Z,93.88
2018-12-02T07:16:45.313Z,94.10
2018-12-02T07:19:16.427Z,94.07
2018-12-02T07:21:47.190Z,94.46
2018-12-02T07:24:16.681Z,94.68
2018-12-02T07:26:44.867Z,94.17
2018-12-02T07:29:13.033Z,94.60
2018-12-02T07:31:41.256Z,94.67
2018-12-02T07:34:09.489Z,94.71
2018-12-02T07:36:37.769Z,94.31
2018-12-02T07:39:17.085Z,94.67
2018-12-02T07:41:45.296Z,94.60
2018-12-02T07:45:16.516Z,94.89
2018-12-02T07:47:44.821Z,94.78
2018-12-02T07:50:13.097Z,94.64
2018-12-02T07:52:41.429Z,94.60
2018-12-02T07:55:09.852Z,94.92
2018-12-02T07:57:38.010Z,94.93
2018-12-02T08:00:12.895Z,95.13
2018-12-02T08:02:41.141Z,95.22
2018-12-02T08:05:10.585Z,95.02
2018-12-02T08:07:38.824Z,95.12
2018-12-02T08:10:11.499Z,95.46
2018-12-02T08:12:39.672Z,95.11
2018-12-02T08:15:10.401Z,95.37
2018-12-02T08:17:38.685Z,95.27
2018-12-02T08:20:12.329Z,95.32
2018-12-02T08:22:40.677Z,95.07
2018-12-02T08:25:10.298Z,95.21
2018-12-02T08:27:38.496Z,95.30
2018-12-02T08:30:11.574Z,95.61
2018-12-02T08:32:39.756Z,95.68
2018-12-02T08:35:09.064Z,95.95
2018-12-02T08:37:37.265Z,95.34
2018-12-02T08:40:09.757Z,95.41
2018-12-02T08:42:37.928Z,95.47
2018-12-02T08:45:13.204Z,95.95
2018-12-02T08:47:43.001Z,95.61
2018-12-02T08:50:18.827Z,95.59
2018-12-02T08:52:48.072Z,95.45
2018-12-02T08:55:18.216Z,95.84
2018-12-02T08:57:46.903Z,95.60
2018-12-02T09:00:18.045Z,95.82
2018-12-02T09:02:49.565Z,95.67
2018-12-02T09:05:17.741Z,95.82
2018-12-02T09:07:45.884Z,95.72
2018-12-02T09:10:16.306Z,95.74
2018-12-02T09:12:44.611Z,95.26
2018-12-02T09:15:12.913Z,95.37
2018-12-02T09:17:41.080Z,95.56
2018-12-02T09:20:12.801Z,95.23
2018-12-02T09:22:40.973Z,95.29
2018-12-02T09:25:14.149Z,95.26
2018-12-02T09:27:42.344Z,95.37
2018-12-02T09:30:20.460Z,95.21
2018-12-02T09:32:49.345Z,95.16
2018-12-02T09:35:17.506Z,95.15
2018-12-02T09:37:45.775Z,95.16
2018-12-02T09:40:14.901Z,95.14
2018-12-02T09:42:45.954Z,95.10
2018-12-02T09:45:25.578Z,95.31
2018-12-02T09:48:00.486Z,95.62
2018-12-02T09:50:28.804Z,95.27
2018-12-02T09:52:57.029Z,95.62
2018-12-02T09:55:31.669Z,95.47
2018-12-02T09:57:59.831Z,95.75
2018-12-02T10:00:33.938Z,95.68
2018-12-02T10:02:57.281Z,95.41
2018-12-02T10:05:25.430Z,95.96
2018-12-02T10:07:53.589Z,95.72
2018-12-02T10:13:21.760Z,95.93
2018-12-02T10:15:49.990Z,96.01
2018-12-02T10:18:18.152Z,95.67
2018-12-02T10:20:46.323Z,95.68
2018-12-02T10:23:14.522Z,95.60
2018-12-02T10:25:42.785Z,95.66
2018-12-02T10:28:11.316Z,95.79
2018-12-02T10:30:40.381Z,96.19
2018-12-02T10:33:08.744Z,95.84
2018-12-02T10:35:36.915Z,95.77
2018-12-02T10:38:06.051Z,95.75
2018-12-02T10:40:34.252Z,95.92
2018-12-02T10:43:03.303Z,95.70
2018-12-02T10:45:31.470Z,95.82
2018-12-02T10:48:00.716Z,95.96
2018-12-02T10:52:03.139Z,95.57
2018-12-02T10:54:31.333Z,95.82
2018-12-02T10:56:59.508Z,95.55
2018-12-02T10:59:28.062Z,95.65
2018-12-02T11:02:30.877Z,95.68
2018-12-02T11:04:59.021Z,96.33
2018-12-02T11:07:27.227Z,95.75
2018-12-02T11:09:55.522Z,95.75
2018-12-02T11:12:23.704Z,96.10
2018-12-02T11:14:51.895Z,95.92
2018-12-02T11:17:20.120Z,95.86
2018-12-02T11:19:48.331Z,96.34
2018-12-02T11:22:16.476Z,96.15
2018-12-02T11:24:44.636Z,96.36
2018-12-02T11:27:12.836Z,96.47
2018-12-02T11:29:41.137Z,96.49
2018-12-02T11:32:09.288Z,96.20
2018-12-02T11:34:37.475Z,96.19
2018-12-02T11:37:07.542Z,96.15
2018-12-02T11:39:52.998Z,96.52
2018-12-02T11:45:25.356Z,96.46
2018-12-02T11:48:07.818Z,96.80
2018-12-02T11:50:36.854Z,96.49
2018-12-02T11:53:05.408Z,96.76
2018-12-02T11:55:33.598Z,96.37
2018-12-02T11:58:01.771Z,96.29
2018-12-02T12:00:30.882Z,96.57
2018-12-02T12:02:59.707Z,96.15
2018-12-02T12:05:28.257Z,96.68
2018-12-02T12:07:56.646Z,96.14
2018-12-02T12:10:29.223Z,96.62
2018-12-02T12:13:00.282Z,96.43
2018-12-02T12:15:29.456Z,96.31
2018-12-02T12:17:58.982Z,96.75
2018-12-02T12:20:33.794Z,96.75
2018-12-02T12:23:01.953Z,96.72
2018-12-02T12:25:30.187Z,96.34
2018-12-02T12:27:58.973Z,96.90
2018-12-02T12:30:28.405Z,96.53
2018-12-02T12:32:56.597Z,96.50
2018-12-02T12:35:25.050Z,96.83
2018-12-02T12:37:53.239Z,96.62
2018-12-02T12:40:22.686Z,96.50
2018-12-02T12:42:58.976Z,96.85
2018-12-02T12:45:27.968Z,96.90
2018-12-02T12:47:56.310Z,96.66
2018-12-02T12:50:24.576Z,96.34
2018-12-02T12:52:52.881Z,96.86
2018-12-02T12:55:24.011Z,96.99
2018-12-02T12:57:52.157Z,96.94
2018-12-02T13:00:23.096Z,96.62
2018-12-02T13:02:51.408Z,96.77
2018-12-02T13:05:23.682Z,97.00
2018-12-02T13:07:52.069Z,96.55
2018-12-02T13:10:21.858Z,96.59
2018-12-02T13:12:50.792Z,96.68
2018-12-02T13:15:20.749Z,96.63
2018-12-02T13:17:57.799Z,96.58
2018-12-02T13:20:27.487Z,96.46
2018-12-02T13:22:55.751Z,96.40
2018-12-02T13:25:25.211Z,96.83
2018-12-02T13:27:53.517Z,96.30
2018-12-02T13:30:21.840Z,96.51
2018-12-02T13:32:52.066Z,96.38
2018-12-02T13:37:41.745Z,96.60
2018-12-02T13:40:14.919Z,96.71
2018-12-02T13:42:44.464Z,96.60
2018-12-02T13:45:16.654Z,96.68
2018-12-02T13:47:46.579Z,97.05
2018-12-02T13:50:19.974Z,97.00
2018-12-02T13:52:49.523Z,96.61
2018-12-02T13:55:19.651Z,96.95
2018-12-02T13:57:48.311Z,97.10
2018-12-02T14:00:17.652Z,96.75
2018-12-02T14:02:47.153Z,96.88
2018-12-02T14:05:15.306Z,97.23
2018-12-02T14:07:43.545Z,97.32
2018-12-02T14:10:15.966Z,97.20
2018-12-02T14:12:47.933Z,96.95
2018-12-02T14:16:30.376Z,97.23
2018-12-02T14:19:00.952Z,97.21
2018-12-02T14:21:29.215Z,97.06
2018-12-02T14:23:57.401Z,97.15
2018-12-02T14:26:25.668Z,97.23
2018-12-02T14:29:08.832Z,97.32
2018-12-02T14:31:40.612Z,97.04
2018-12-02T14:34:10.825Z,97.13
2018-12-02T14:36:40.419Z,97.05
2018-12-02T14:39:12.614Z,97.32
2018-12-02T14:41:40.855Z,97.51
2018-12-02T14:44:12.976Z,96.92
2018-12-02T14:46:47.172Z,97.41
2018-12-02T14:49:16.170Z,97.14
2018-12-02T14:51:44.761Z,97.46
2018-12-02T14:54:13.923Z,96.89
2018-12-02T14:56:43.520Z,97.15
2018-12-02T14:59:12.374Z,97.34
2018-12-02T15:01:40.546Z,97.59
2018-12-02T15:04:08.728Z,97.13
2018-12-02T15:06:36.878Z,97.19
2018-12-02T15:09:08.447Z,97.60
2018-12-02T15:11:36.624Z,97.61
2018-12-02T15:14:06.364Z,97.40
2018-12-02T15:16:34.403Z,97.64
2018-12-02T15:19:02.584Z,97.34
2018-12-02T15:21:30.769Z,97.61
2018-12-02T15:23:58.932Z,97.77
2018-12-02T15:26:27.124Z,97.85
2018-12-02T15:28:55.269Z,97.29
2018-12-02T15:34:14.918Z,97.15
2018-12-02T15:36:45.121Z,97.25
2018-12-02T15:39:13.357Z,97.41
2018-12-02T15:41:41.548Z,96.98
2018-12-02T15:44:11.561Z,97.27
2018-12-02T15:46:39.727Z,97.01
2018-12-02T15:49:07.951Z,97.31
2018-12-02T15:51:36.214Z,96.88
2018-12-02T15:54:04.394Z,97.18
2018-12-02T15:56:32.556Z,97.04
2018-12-02T15:59:01.290Z,97.06
2018-12-02T16:01:29.503Z,96.90
2018-12-02T16:03:57.652Z,97.22
2018-12-02T16:06:25.811Z,97.24
2018-12-02T16:08:53.957Z,96.92
2018-12-02T16:11:22.139Z,97.33
2018-12-02T16:13:50.419Z,97.37
2018-12-02T16:16:20.657Z,97.30
2018-12-02T16:18:49.520Z,97.05
2018-12-02T16:21:17.796Z,97.10
2018-12-02T16:23:46.096Z,97.07
2018-12-02T16:26:14.345Z,96.94
2018-12-02T16:28:42.623Z,97.21
2018-12-02T16:31:10.842Z,97.25
2018-12-02T16:33:39.010Z,97.69
2018-12-02T16:36:07.239Z,97.13
2018-12-02T16:38:35.488Z,97.45
2018-12-02T16:41:03.806Z,97.29
2018-12-02T16:43:32.014Z,97.37
2018-12-02T16:46:00.180Z,97.22
2018-12-02T16:48:28.424Z,96.91
2018-12-02T16:50:56.604Z,96.47
2018-12-02T16:53:26.418Z,96.33
2018-12-02T16:55:58.935Z,96.06
2018-12-02T16:59:02.526Z,96.46
2018-12-02T17:01:32.443Z,96.46
2018-12-02T17:04:01.926Z,96.04
2018-12-02T17:06:30.223Z,95.47
2018-12-02T17:09:00.963Z,95.81
2018-12-02T17:11:29.463Z,96.28
2018-12-02T17:14:00.460Z,96.50
2018-12-02T17:16:28.788Z,95.89
2018-12-02T17:18:56.934Z,96.23
2018-12-02T17:21:25.085Z,95.99
2018-12-02T17:23:53.501Z,96.80
2018-12-02T17:26:21.760Z,96.18
2018-12-02T17:28:49.939Z,95.88
2018-12-02T17:31:20.077Z,96.30
2018-12-02T17:33:48.353Z,96.46
2018-12-02T17:36:16.483Z,96.15
2018-12-02T17:38:44.888Z,95.52
2018-12-02T17:41:14.253Z,96.11
2018-12-02T17:43:42.455Z,95.92
2018-12-02T17:46:10.656Z,95.74
2018-12-02T17:48:38.908Z,95.35
2018-12-02T17:51:07.793Z,95.76
2018-12-02T17:53:36.679Z,95.49
2018-12-02T17:56:05.281Z,95.95
2018-12-02T17:58:33.441Z,95.29
2018-12-02T18:01:01.747Z,95.66
2018-12-02T18:03:32.974Z,95.97
2018-12-02T18:06:01.302Z,96.12
2018-12-02T18:08:30.454Z,96.13
2018-12-02T18:10:58.749Z,95.57
2018-12-02T18:13:26.913Z,95.40
2018-12-02T18:15:58.019Z,95.40
2018-12-02T18:18:26.247Z,94.83
2018-12-02T18:20:54.544Z,94.72
2018-12-02T18:23:22.780Z,95.22
2018-12-02T18:25:51.068Z,94.61
2018-12-02T18:28:19.212Z,94.71
2018-12-02T18:30:47.397Z,94.60
2018-12-02T18:33:16.357Z,94.68
2018-12-02T18:35:56.784Z,94.99
2018-12-02T18:38:25.852Z,94.76
2018-12-02T18:40:57.905Z,95.09
2018-12-02T18:43:26.448Z,94.90
2018-12-02T18:45:54.590Z,94.62
2018-12-02T18:48:22.756Z,95.02
2018-12-02T18:50:50.943Z,95.34
2018-12-02T18:53:19.119Z,95.20
2018-12-02T18:55:47.333Z,95.26
2018-12-02T18:58:15.544Z,95.42
2018-12-02T19:00:47.397Z,95.58
2018-12-02T19:03:16.919Z,95.62
2018-12-02T19:05:45.263Z,95.28
2018-12-02T19:08:13.453Z,96.05
2018-12-02T19:10:41.972Z,96.03
2018-12-02T19:13:10.208Z,95.70
2018-12-02T19:15:38.370Z,95.95
2018-12-02T19:18:06.589Z,95.49
2018-12-02T19:20:34.725Z,96.01
2018-12-02T19:23:04.751Z,96.01
2018-12-02T19:25:32.907Z,96.12
2018-12-02T19:28:01.130Z,96.88
2018-12-02T19:30:33.048Z,96.72
2018-12-02T19:32:57.623Z,96.77
2018-12-02T19:35:30.508Z,97.32
2018-12-02T19:38:00.972Z,97.36
2018-12-02T19:40:30.194Z,97.35
2018-12-02T19:42:58.453Z,97.09
2018-12-02T19:45:26.659Z,97.68
2018-12-02T19:47:54.905Z,97.55
2018-12-02T19:50:23.064Z,97.27
2018-12-02T19:52:51.377Z,97.62
2018-12-02T19:55:19.571Z,97.50
2018-12-02T19:57:48.770Z,97.71
2018-12-02T20:00:24.181Z,97.69
2018-12-02T20:02:52.379Z,97.88
2018-12-02T20:05:20.596Z,97.92
2018-12-02T20:07:53.069Z,97.94
2018-12-02T20:10:22.805Z,97.95
2018-12-02T20:12:50.983Z,98.16
2018-12-02T20:15:19.711Z,98.08
2018-12-02T20:17:47.954Z,97.96
2018-12-02T20:20:23.637Z,97.74
2018-12-02T20:22:52.647Z,97.75
2018-12-02T20:25:22.078Z,98.04
2018-12-02T20:27:51.276Z,97.39
2018-12-02T20:30:20.593Z,97.53
2018-12-02T20:32:48.816Z,97.53
2018-12-02T20:35:16.974Z,97.24
2018-12-02T20:37:45.219Z,97.15
2018-12-02T20:40:18.444Z,97.21
2018-12-02T20:42:47.493Z,97.48
2018-12-02T20:45:16.424Z,96.71
2018-12-02T20:47:44.662Z,97.02
2018-12-02T20:50:13.761Z,96.95
2018-12-02T20:52:42.121Z,96.14
2018-12-02T20:55:14.463Z,96.56
2018-12-02T20:57:42.672Z,96.34
2018-12-02T21:00:14.954Z,96.15
2018-12-02T21:02:44.281Z,95.98
2018-12-02T21:05:16.789Z,96.08
2018-12-02T21:07:44.976Z,96.11
2018-12-02T21:10:13.185Z,96.11
2018-12-02T21:12:41.483Z,95.94
2018-12-02T21:15:11.223Z,95.99
2018-12-02T21:17:39.517Z,95.97
2018-12-02T21:20:11.592Z,95.89
2018-12-02T21:22:51.803Z,96.36
2018-12-02T21:25:21.122Z,96.03
2018-12-02T21:27:50.337Z,95.80
2018-12-02T21:30:23.856Z,95.73
2018-12-02T21:32:52.067Z,95.78
2018-12-02T21:35:20.266Z,96.06
2018-12-02T21:37:48.705Z,95.81
2018-12-02T21:40:17.277Z,95.86
2018-12-02T21:42:45.760Z,95.93
2018-12-02T21:45:15.647Z,96.30
2018-12-02T21:47:49.045Z,95.90
2018-12-02T21:50:20.597Z,96.20
2018-12-02T21:52:48.778Z,96.12
2018-12-02T21:55:16.955Z,96.27
2018-12-02T21:57:45.143Z,95.98
2018-12-02T22:00:22.382Z,96.46
2018-12-02T22:02:51.889Z,96.24
2018-12-02T22:05:20.220Z,96.18
2018-12-02T22:07:49.448Z,96.39
2018-12-02T22:10:33.507Z,96.04
2018-12-02T22:13:02.689Z,96.41
2018-12-02T22:15:30.888Z,95.83
2018-12-02T22:17:59.159Z,95.72
2018-12-02T22:20:27.386Z,95.70
2018-12-02T22:22:55.646Z,95.20
2018-12-02T22:25:24.162Z,95.40
2018-12-02T22:27:54.421Z,95.66
2018-12-02T22:30:24.437Z,95.66
2018-12-02T22:32:52.668Z,95.63
2018-12-02T22:35:21.041Z,95.85
2018-12-02T22:37:49.204Z,96.03
2018-12-02T22:40:20.259Z,95.79
2018-12-02T22:42:48.429Z,95.77
2018-12-02T22:45:17.762Z,95.32
2018-12-02T22:47:46.005Z,95.57
2018-12-02T22:50:15.357Z,95.78
2018-12-02T22:52:43.979Z,95.49
2018-12-02T22:55:12.401Z,95.22
2018-12-02T22:57:40.558Z,95.50
2018-12-02T23:00:19.802Z,96.19
2018-12-02T23:02:57.669Z,95.74
2018-12-02T23:05:25.805Z,95.69
2018-12-02T23:07:53.995Z,96.01
2018-12-02T23:10:22.172Z,95.74
2018-12-02T23:12:50.337Z,95.47
2018-12-02T23:15:18.564Z,95.82
2018-12-02T23:17:46.774Z,95.53
2018-12-02T23:20:14.996Z,95.10
2018-12-02T23:22:43.149Z,95.60
2018-12-02T23:25:12.342Z,95.72
2018-12-02T23:27:40.557Z,95.88
2018-12-02T23:30:13.521Z,95.71
2018-12-02T23:32:41.712Z,95.84
2018-12-02T23:35:09.984Z,95.53
2018-12-02T23:37:38.204Z,95.41
2018-12-02T23:40:14.249Z,95.89
2018-12-02T23:42:42.600Z,95.81
2018-12-02T23:45:12.517Z,95.50
2018-12-02T23:47:40.784Z,95.53
2018-12-02T23:50:10.093Z,95.93
2018-12-02T23:52:38.240Z,95.63
2018-12-02T23:55:11.305Z,95.07
2018-12-02T23:57:39.524Z,95.48
